sensor_id;sensor_type;location;lat;lon;timestamp;temperature;humidity
75615;DHT22;64199;48.578;-4.520;2023-04-01T00:00:19;22.00;55.40
75615;DHT22;64199;48.578;-4.520;2023-04-01T00:02:45;22.00;55.40
75615;DHT22;64199;48.578;-4.520;2023-04-01T00:05:12;22.00;55.40
75615;DHT22;64199;48.578;-4.520;2023-04-01T00:07:39;22.00;55.40
75615;DHT22;64199;48.578;-4.520;2023-04-01T00:10:07;22.10;55.50
75615;DHT22;64199;48.578;-4.520;2023-04-01T00:12:33;22.10;55.50
75615;DHT22;64199;48.578;-4.520;2023-04-01T00:15:00;22.10;55.50
75615;DHT22;64199;48.578;-4.520;2023-04-01T00:17:26;22.10;55.50
75615;DHT22;64199;48.578;-4.520;2023-04-01T00:19:54;22.10;55.50
75615;DHT22;64199;48.578;-4.520;2023-04-01T00:22:20;22.20;55.60
75615;DHT22;64199;48.578;-4.520;2023-04-01T00:24:46;22.20;55.60
75615;DHT22;64199;48.578;-4.520;2023-04-01T00:27:12;22.20;55.70
75615;DHT22;64199;48.578;-4.520;2023-04-01T00:29:44;22.20;55.70
75615;DHT22;64199;48.578;-4.520;2023-04-01T00:32:11;22.20;55.70
75615;DHT22;64199;48.578;-4.520;2023-04-01T00:34:37;22.20;55.80
75615;DHT22;64199;48.578;-4.520;2023-04-01T00:37:03;22.30;55.90
75615;DHT22;64199;48.578;-4.520;2023-04-01T00:39:30;22.30;56.00
75615;DHT22;64199;48.578;-4.520;2023-04-01T00:41:57;22.30;56.10
75615;DHT22;64199;48.578;-4.520;2023-04-01T00:44:28;22.30;56.10
75615;DHT22;64199;48.578;-4.520;2023-04-01T00:46:56;22.30;56.20
75615;DHT22;64199;48.578;-4.520;2023-04-01T00:49:42;22.40;56.40
75615;DHT22;64199;48.578;-4.520;2023-04-01T00:52:12;22.40;56.50
75615;DHT22;64199;48.578;-4.520;2023-04-01T00:54:42;22.40;56.50
75615;DHT22;64199;48.578;-4.520;2023-04-01T00:57:15;22.40;56.50
75615;DHT22;64199;48.578;-4.520;2023-04-01T00:59:47;22.40;56.50
75615;DHT22;64199;48.578;-4.520;2023-04-01T01:02:15;22.50;56.60
75615;DHT22;64199;48.578;-4.520;2023-04-01T01:04:42;22.50;56.70
75615;DHT22;64199;48.578;-4.520;2023-04-01T01:10:29;22.50;56.70
75615;DHT22;64199;48.578;-4.520;2023-04-01T01:13:00;22.50;56.70
75615;DHT22;64199;48.578;-4.520;2023-04-01T01:15:31;22.50;56.70
75615;DHT22;64199;48.578;-4.520;2023-04-01T01:18:02;22.60;56.70
75615;DHT22;64199;48.578;-4.520;2023-04-01T01:31:37;22.60;56.80
75615;DHT22;64199;48.578;-4.520;2023-04-01T01:34:27;22.60;56.80
75615;DHT22;64199;48.578;-4.520;2023-04-01T01:37:01;22.60;56.90
75615;DHT22;64199;48.578;-4.520;2023-04-01T01:39:30;22.70;56.90
75615;DHT22;64199;48.578;-4.520;2023-04-01T01:42:00;22.70;56.90
75615;DHT22;64199;48.578;-4.520;2023-04-01T01:44:28;22.70;56.90
75615;DHT22;64199;48.578;-4.520;2023-04-01T01:46:56;22.70;56.80
75615;DHT22;64199;48.578;-4.520;2023-04-01T01:49:23;22.70;56.60
75615;DHT22;64199;48.578;-4.520;2023-04-01T01:51:50;22.70;56.50
75615;DHT22;64199;48.578;-4.520;2023-04-01T01:54:17;22.80;56.50
75615;DHT22;64199;48.578;-4.520;2023-04-01T01:56:46;22.70;56.40
75615;DHT22;64199;48.578;-4.520;2023-04-01T01:59:15;22.80;56.40
75615;DHT22;64199;48.578;-4.520;2023-04-01T02:01:45;22.80;56.40
75615;DHT22;64199;48.578;-4.520;2023-04-01T02:04:13;22.80;56.30
75615;DHT22;64199;48.578;-4.520;2023-04-01T02:06:45;22.80;56.30
75615;DHT22;64199;48.578;-4.520;2023-04-01T02:09:12;22.80;56.40
75615;DHT22;64199;48.578;-4.520;2023-04-01T02:11:49;22.90;56.60
75615;DHT22;64199;48.578;-4.520;2023-04-01T02:14:17;22.80;56.60
75615;DHT22;64199;48.578;-4.520;2023-04-01T02:16:57;22.90;56.60
75615;DHT22;64199;48.578;-4.520;2023-04-01T02:20:13;22.90;56.70
75615;DHT22;64199;48.578;-4.520;2023-04-01T02:22:26;22.90;56.60
75615;DHT22;64199;48.578;-4.520;2023-04-01T02:24:58;22.90;56.50
75615;DHT22;64199;48.578;-4.520;2023-04-01T02:27:25;22.90;56.50
75615;DHT22;64199;48.578;-4.520;2023-04-01T02:29:52;22.90;56.40
75615;DHT22;64199;48.578;-4.520;2023-04-01T02:32:19;22.90;56.30
75615;DHT22;64199;48.578;-4.520;2023-04-01T02:34:46;22.80;56.20
75615;DHT22;64199;48.578;-4.520;2023-04-01T02:37:13;22.80;56.10
75615;DHT22;64199;48.578;-4.520;2023-04-01T02:39:41;22.80;56.10
75615;DHT22;64199;48.578;-4.520;2023-04-01T02:42:08;22.80;56.00
75615;DHT22;64199;48.578;-4.520;2023-04-01T02:44:34;22.70;56.00
75615;DHT22;64199;48.578;-4.520;2023-04-01T02:47:01;22.70;56.00
75615;DHT22;64199;48.578;-4.520;2023-04-01T02:49:26;22.70;55.90
75615;DHT22;64199;48.578;-4.520;2023-04-01T02:51:52;22.60;55.90
75615;DHT22;64199;48.578;-4.520;2023-04-01T02:54:19;22.60;55.90
75615;DHT22;64199;48.578;-4.520;2023-04-01T02:56:45;22.60;55.90
75615;DHT22;64199;48.578;-4.520;2023-04-01T02:59:11;22.50;55.90
75615;DHT22;64199;48.578;-4.520;2023-04-01T03:04:04;22.50;55.30
75615;DHT22;64199;48.578;-4.520;2023-04-01T03:06:30;22.40;55.70
75615;DHT22;64199;48.578;-4.520;2023-04-01T03:08:56;22.40;55.80
75615;DHT22;64199;48.578;-4.520;2023-04-01T03:11:22;22.40;55.90
75615;DHT22;64199;48.578;-4.520;2023-04-01T03:13:48;22.30;55.80
75615;DHT22;64199;48.578;-4.520;2023-04-01T03:16:14;22.30;55.90
75615;DHT22;64199;48.578;-4.520;2023-04-01T03:18:40;22.30;55.90
75615;DHT22;64199;48.578;-4.520;2023-04-01T03:21:32;22.30;55.90
75615;DHT22;64199;48.578;-4.520;2023-04-01T03:23:58;22.20;55.90
75615;DHT22;64199;48.578;-4.520;2023-04-01T03:26:24;22.20;55.90
75615;DHT22;64199;48.578;-4.520;2023-04-01T03:28:52;22.10;56.00
75615;DHT22;64199;48.578;-4.520;2023-04-01T03:31:18;22.10;56.00
75615;DHT22;64199;48.578;-4.520;2023-04-01T03:33:45;22.10;56.00
75615;DHT22;64199;48.578;-4.520;2023-04-01T03:36:11;22.00;56.00
75615;DHT22;64199;48.578;-4.520;2023-04-01T03:38:42;22.00;56.60
75615;DHT22;64199;48.578;-4.520;2023-04-01T03:41:14;22.00;56.00
75615;DHT22;64199;48.578;-4.520;2023-04-01T03:43:41;22.00;56.10
75615;DHT22;64199;48.578;-4.520;2023-04-01T03:46:07;21.90;56.00
75615;DHT22;64199;48.578;-4.520;2023-04-01T03:48:32;21.90;56.10
75615;DHT22;64199;48.578;-4.520;2023-04-01T03:50:58;21.90;56.10
75615;DHT22;64199;48.578;-4.520;2023-04-01T03:53:24;21.90;56.10
75615;DHT22;64199;48.578;-4.520;2023-04-01T03:55:50;21.80;56.20
75615;DHT22;64199;48.578;-4.520;2023-04-01T03:58:17;21.80;56.10
75615;DHT22;64199;48.578;-4.520;2023-04-01T04:00:43;21.70;56.10
75615;DHT22;64199;48.578;-4.520;2023-04-01T04:03:09;21.70;56.10
75615;DHT22;64199;48.578;-4.520;2023-04-01T04:05:35;21.70;56.10
75615;DHT22;64199;48.578;-4.520;2023-04-01T04:08:01;21.70;56.20
75615;DHT22;64199;48.578;-4.520;2023-04-01T04:10:28;21.60;56.20
75615;DHT22;64199;48.578;-4.520;2023-04-01T04:12:55;21.60;56.20
75615;DHT22;64199;48.578;-4.520;2023-04-01T04:15:21;21.60;56.20
75615;DHT22;64199;48.578;-4.520;2023-04-01T04:17:47;21.60;56.30
75615;DHT22;64199;48.578;-4.520;2023-04-01T04:20:13;21.50;56.30
75615;DHT22;64199;48.578;-4.520;2023-04-01T04:22:39;21.50;56.40
75615;DHT22;64199;48.578;-4.520;2023-04-01T04:25:05;21.50;56.40
75615;DHT22;64199;48.578;-4.520;2023-04-01T04:27:32;21.40;56.40
75615;DHT22;64199;48.578;-4.520;2023-04-01T04:29:58;21.40;56.50
75615;DHT22;64199;48.578;-4.520;2023-04-01T04:32:24;21.40;56.50
75615;DHT22;64199;48.578;-4.520;2023-04-01T04:34:50;21.40;56.60
75615;DHT22;64199;48.578;-4.520;2023-04-01T04:37:16;21.30;56.60
75615;DHT22;64199;48.578;-4.520;2023-04-01T04:39:42;21.30;56.70
75615;DHT22;64199;48.578;-4.520;2023-04-01T04:42:07;21.30;56.70
75615;DHT22;64199;48.578;-4.520;2023-04-01T04:44:33;21.30;56.70
75615;DHT22;64199;48.578;-4.520;2023-04-01T04:46:59;21.30;56.70
75615;DHT22;64199;48.578;-4.520;2023-04-01T04:49:25;21.30;56.70
75615;DHT22;64199;48.578;-4.520;2023-04-01T04:51:51;21.20;56.70
75615;DHT22;64199;48.578;-4.520;2023-04-01T04:54:17;21.20;56.70
75615;DHT22;64199;48.578;-4.520;2023-04-01T04:56:43;21.20;56.70
75615;DHT22;64199;48.578;-4.520;2023-04-01T04:59:09;21.20;56.70
75615;DHT22;64199;48.578;-4.520;2023-04-01T05:01:35;21.20;56.80
75615;DHT22;64199;48.578;-4.520;2023-04-01T05:04:01;21.20;56.80
75615;DHT22;64199;48.578;-4.520;2023-04-01T05:06:27;21.20;56.90
75615;DHT22;64199;48.578;-4.520;2023-04-01T05:08:55;21.10;56.90
75615;DHT22;64199;48.578;-4.520;2023-04-01T05:11:22;21.10;56.90
75615;DHT22;64199;48.578;-4.520;2023-04-01T05:13:48;21.10;56.90
75615;DHT22;64199;48.578;-4.520;2023-04-01T05:16:17;21.10;57.00
75615;DHT22;64199;48.578;-4.520;2023-04-01T05:18:43;21.10;57.00
75615;DHT22;64199;48.578;-4.520;2023-04-01T05:21:11;21.10;57.70
75615;DHT22;64199;48.578;-4.520;2023-04-01T05:23:38;21.10;57.10
75615;DHT22;64199;48.578;-4.520;2023-04-01T05:26:05;21.10;57.10
75615;DHT22;64199;48.578;-4.520;2023-04-01T05:28:32;21.20;57.20
75615;DHT22;64199;48.578;-4.520;2023-04-01T05:30:59;21.20;57.30
75615;DHT22;64199;48.578;-4.520;2023-04-01T05:33:26;21.20;57.40
75615;DHT22;64199;48.578;-4.520;2023-04-01T05:35:52;21.30;57.40
75615;DHT22;64199;48.578;-4.520;2023-04-01T05:38:18;21.30;57.40
75615;DHT22;64199;48.578;-4.520;2023-04-01T05:40:44;21.30;57.50
75615;DHT22;64199;48.578;-4.520;2023-04-01T05:43:11;21.40;57.60
75615;DHT22;64199;48.578;-4.520;2023-04-01T05:45:37;21.40;57.60
75615;DHT22;64199;48.578;-4.520;2023-04-01T05:48:03;21.40;57.60
75615;DHT22;64199;48.578;-4.520;2023-04-01T05:50:29;21.40;57.60
75615;DHT22;64199;48.578;-4.520;2023-04-01T05:52:55;21.50;57.70
75615;DHT22;64199;48.578;-4.520;2023-04-01T05:55:21;21.40;57.60
75615;DHT22;64199;48.578;-4.520;2023-04-01T05:57:47;21.50;57.70
75615;DHT22;64199;48.578;-4.520;2023-04-01T06:00:16;21.50;57.70
75615;DHT22;64199;48.578;-4.520;2023-04-01T06:02:42;21.50;57.70
75615;DHT22;64199;48.578;-4.520;2023-04-01T06:05:24;21.50;57.70
75615;DHT22;64199;48.578;-4.520;2023-04-01T06:07:59;21.60;57.80
75615;DHT22;64199;48.578;-4.520;2023-04-01T06:10:49;21.60;57.80
75615;DHT22;64199;48.578;-4.520;2023-04-01T06:25:09;21.70;57.70
75615;DHT22;64199;48.578;-4.520;2023-04-01T06:33:17;21.80;57.70
75615;DHT22;64199;48.578;-4.520;2023-04-01T06:39:15;21.80;57.80
75615;DHT22;64199;48.578;-4.520;2023-04-01T06:42:08;21.90;58.00
75615;DHT22;64199;48.578;-4.520;2023-04-01T06:44:49;21.90;58.00
75615;DHT22;64199;48.578;-4.520;2023-04-01T06:50:30;21.90;58.00
75615;DHT22;64199;48.578;-4.520;2023-04-01T06:53:10;21.90;58.20
75615;DHT22;64199;48.578;-4.520;2023-04-01T06:55:46;22.00;58.20
75615;DHT22;64199;48.578;-4.520;2023-04-01T06:58:29;22.00;58.10
75615;DHT22;64199;48.578;-4.520;2023-04-01T07:01:03;22.00;58.20
75615;DHT22;64199;48.578;-4.520;2023-04-01T07:06:20;22.10;58.20
75615;DHT22;64199;48.578;-4.520;2023-04-01T07:08:50;22.10;58.30
75615;DHT22;64199;48.578;-4.520;2023-04-01T07:11:29;22.20;58.40
75615;DHT22;64199;48.578;-4.520;2023-04-01T07:14:02;22.20;58.50
75615;DHT22;64199;48.578;-4.520;2023-04-01T07:16:38;22.20;58.40
75615;DHT22;64199;48.578;-4.520;2023-04-01T07:19:11;22.20;58.40
75615;DHT22;64199;48.578;-4.520;2023-04-01T07:24:14;22.30;58.40
75615;DHT22;64199;48.578;-4.520;2023-04-01T07:26:42;22.30;58.30
75615;DHT22;64199;48.578;-4.520;2023-04-01T07:29:13;22.30;58.30
75615;DHT22;64199;48.578;-4.520;2023-04-01T07:37:17;22.40;58.10
75615;DHT22;64199;48.578;-4.520;2023-04-01T07:41:03;22.40;58.10
75615;DHT22;64199;48.578;-4.520;2023-04-01T07:48:56;22.40;58.00
75615;DHT22;64199;48.578;-4.520;2023-04-01T07:54:04;22.50;57.90
75615;DHT22;64199;48.578;-4.520;2023-04-01T07:56:52;22.50;57.70
75615;DHT22;64199;48.578;-4.520;2023-04-01T07:59:26;22.40;57.30
75615;DHT22;64199;48.578;-4.520;2023-04-01T08:07:30;22.40;56.80
75615;DHT22;64199;48.578;-4.520;2023-04-01T08:10:16;22.30;57.10
75615;DHT22;64199;48.578;-4.520;2023-04-01T08:18:59;22.20;57.20
75615;DHT22;64199;48.578;-4.520;2023-04-01T08:21:54;22.20;57.10
75615;DHT22;64199;48.578;-4.520;2023-04-01T08:24:42;22.20;57.10
75615;DHT22;64199;48.578;-4.520;2023-04-01T08:27:37;22.10;56.90
75615;DHT22;64199;48.578;-4.520;2023-04-01T08:32:59;22.00;56.70
75615;DHT22;64199;48.578;-4.520;2023-04-01T08:35:39;22.00;56.60
75615;DHT22;64199;48.578;-4.520;2023-04-01T08:38:19;21.90;57.20
75615;DHT22;64199;48.578;-4.520;2023-04-01T08:41:00;21.90;56.50
75615;DHT22;64199;48.578;-4.520;2023-04-01T08:44:04;21.90;56.50
75615;DHT22;64199;48.578;-4.520;2023-04-01T08:55:46;21.70;56.50
75615;DHT22;64199;48.578;-4.520;2023-04-01T09:10:20;21.50;56.60
75615;DHT22;64199;48.578;-4.520;2023-04-01T09:13:14;21.50;56.60
75615;DHT22;64199;48.578;-4.520;2023-04-01T09:18:59;21.40;56.60
75615;DHT22;64199;48.578;-4.520;2023-04-01T09:27:02;21.30;56.60
75615;DHT22;64199;48.578;-4.520;2023-04-01T09:37:45;21.20;56.70
75615;DHT22;64199;48.578;-4.520;2023-04-01T09:43:03;21.10;57.20
75615;DHT22;64199;48.578;-4.520;2023-04-01T09:49:07;21.10;56.70
75615;DHT22;64199;48.578;-4.520;2023-04-01T10:26:01;21.00;56.90
75615;DHT22;64199;48.578;-4.520;2023-04-01T10:45:19;21.20;57.20
75615;DHT22;64199;48.578;-4.520;2023-04-01T10:48:49;21.20;57.20
75615;DHT22;64199;48.578;-4.520;2023-04-01T10:54:40;21.30;57.30
75615;DHT22;64199;48.578;-4.520;2023-04-01T11:09:26;21.50;57.40
75615;DHT22;64199;48.578;-4.520;2023-04-01T11:12:07;21.60;57.50
75615;DHT22;64199;48.578;-4.520;2023-04-01T11:26:12;21.70;57.40
75615;DHT22;64199;48.578;-4.520;2023-04-01T11:29:09;21.80;57.50
75615;DHT22;64199;48.578;-4.520;2023-04-01T11:34:47;21.80;57.40
75615;DHT22;64199;48.578;-4.520;2023-04-01T11:38:33;21.90;57.40
75615;DHT22;64199;48.578;-4.520;2023-04-01T11:40:45;21.90;57.50
75615;DHT22;64199;48.578;-4.520;2023-04-01T11:46:21;21.90;57.40
75615;DHT22;64199;48.578;-4.520;2023-04-01T11:48:55;22.00;57.30
75615;DHT22;64199;48.578;-4.520;2023-04-01T12:14:31;22.30;57.30
75615;DHT22;64199;48.578;-4.520;2023-04-01T12:23:10;22.40;57.10
75615;DHT22;64199;48.578;-4.520;2023-04-01T12:28:33;22.40;57.10
75615;DHT22;64199;48.578;-4.520;2023-04-01T12:33:57;22.50;58.40
75615;DHT22;64199;48.578;-4.520;2023-04-01T12:36:45;22.50;58.70
75615;DHT22;64199;48.578;-4.520;2023-04-01T12:39:47;22.50;58.40
75615;DHT22;64199;48.578;-4.520;2023-04-01T12:45:28;22.60;57.50
75615;DHT22;64199;48.578;-4.520;2023-04-01T12:53:43;22.70;57.10
75615;DHT22;64199;48.578;-4.520;2023-04-01T12:56:40;22.60;56.30
75615;DHT22;64199;48.578;-4.520;2023-04-01T12:59:33;22.70;56.10
75615;DHT22;64199;48.578;-4.520;2023-04-01T13:51:49;22.70;54.80
75615;DHT22;64199;48.578;-4.520;2023-04-01T14:34:21;22.50;54.90
75615;DHT22;64199;48.578;-4.520;2023-04-01T14:47:18;22.70;55.20
75615;DHT22;64199;48.578;-4.520;2023-04-01T14:49:54;22.40;55.20
75615;DHT22;64199;48.578;-4.520;2023-04-01T14:52:31;22.70;55.50
75615;DHT22;64199;48.578;-4.520;2023-04-01T14:57:31;22.40;55.10
75615;DHT22;64199;48.578;-4.520;2023-04-01T15:00:13;22.30;55.40
75615;DHT22;64199;48.578;-4.520;2023-04-01T15:05:32;22.30;55.20
75615;DHT22;64199;48.578;-4.520;2023-04-01T15:27:17;22.10;55.90
75615;DHT22;64199;48.578;-4.520;2023-04-01T15:30:46;22.10;56.00
75615;DHT22;64199;48.578;-4.520;2023-04-01T15:43:50;22.10;56.00
75615;DHT22;64199;48.578;-4.520;2023-04-01T15:46:48;22.10;55.90
75615;DHT22;64199;48.578;-4.520;2023-04-01T16:14:28;21.90;56.20
75615;DHT22;64199;48.578;-4.520;2023-04-01T16:17:23;21.90;56.20
75615;DHT22;64199;48.578;-4.520;2023-04-01T16:25:46;21.90;56.20
75615;DHT22;64199;48.578;-4.520;2023-04-01T16:28:42;21.90;56.20
75615;DHT22;64199;48.578;-4.520;2023-04-01T16:31:15;21.80;56.20
75615;DHT22;64199;48.578;-4.520;2023-04-01T16:39:06;22.40;56.40
75615;DHT22;64199;48.578;-4.520;2023-04-01T16:41:41;21.80;56.20
75615;DHT22;64199;48.578;-4.520;2023-04-01T16:44:14;21.80;56.30
75615;DHT22;64199;48.578;-4.520;2023-04-01T16:46:46;21.80;56.30
75615;DHT22;64199;48.578;-4.520;2023-04-01T16:54:55;21.70;56.40
75615;DHT22;64199;48.578;-4.520;2023-04-01T16:57:46;21.80;56.50
75615;DHT22;64199;48.578;-4.520;2023-04-01T17:00:24;21.80;56.60
75615;DHT22;64199;48.578;-4.520;2023-04-01T17:11:19;21.90;56.50
75615;DHT22;64199;48.578;-4.520;2023-04-01T17:17:01;21.90;56.00
75615;DHT22;64199;48.578;-4.520;2023-04-01T17:19:42;21.90;56.00
75615;DHT22;64199;48.578;-4.520;2023-04-01T17:22:32;22.00;56.00
75615;DHT22;64199;48.578;-4.520;2023-04-01T17:59:34;22.00;54.70
75615;DHT22;64199;48.578;-4.520;2023-04-01T18:05:23;21.80;55.40
75615;DHT22;64199;48.578;-4.520;2023-04-01T18:13:43;21.80;55.50
75615;DHT22;64199;48.578;-4.520;2023-04-01T18:31:51;21.90;54.70
75615;DHT22;64199;48.578;-4.520;2023-04-01T18:37:18;21.60;55.50
75615;DHT22;64199;48.578;-4.520;2023-04-01T18:40:15;21.60;55.60
75615;DHT22;64199;48.578;-4.520;2023-04-01T18:48:14;21.50;55.10
75615;DHT22;64199;48.578;-4.520;2023-04-01T18:51:01;21.60;55.60
75615;DHT22;64199;48.578;-4.520;2023-04-01T18:53:38;21.50;55.50
75615;DHT22;64199;48.578;-4.520;2023-04-01T18:56:15;21.60;55.20
75615;DHT22;64199;48.578;-4.520;2023-04-01T18:59:08;21.60;55.60
75615;DHT22;64199;48.578;-4.520;2023-04-01T19:04:36;21.60;55.90
75615;DHT22;64199;48.578;-4.520;2023-04-01T19:10:07;21.40;55.60
75615;DHT22;64199;48.578;-4.520;2023-04-01T19:29:06;21.70;54.80
75615;DHT22;64199;48.578;-4.520;2023-04-01T19:50:46;21.70;55.00
75615;DHT22;64199;48.578;-4.520;2023-04-01T20:06:56;22.10;54.70
75615;DHT22;64199;48.578;-4.520;2023-04-01T20:17:07;22.10;61.60
75615;DHT22;64199;48.578;-4.520;2023-04-01T21:25:09;23.80;53.70
75615;DHT22;64199;48.578;-4.520;2023-04-01T21:44:05;24.00;53.30
75615;DHT22;64199;48.578;-4.520;2023-04-01T22:02:22;23.70;52.70
75615;DHT22;64199;48.578;-4.520;2023-04-01T22:07:27;23.70;54.10
75615;DHT22;64199;48.578;-4.520;2023-04-01T22:20:31;23.30;53.00
75615;DHT22;64199;48.578;-4.520;2023-04-01T22:30:51;23.10;53.10
75615;DHT22;64199;48.578;-4.520;2023-04-01T22:33:34;23.00;53.50
75615;DHT22;64199;48.578;-4.520;2023-04-01T22:36:29;22.80;53.80
75615;DHT22;64199;48.578;-4.520;2023-04-01T23:03:02;22.60;53.90
75615;DHT22;64199;48.578;-4.520;2023-04-01T23:05:30;22.80;55.40
75615;DHT22;64199;48.578;-4.520;2023-04-01T23:08:20;22.30;54.40
75615;DHT22;64199;48.578;-4.520;2023-04-01T23:13:29;22.20;54.50
75615;DHT22;64199;48.578;-4.520;2023-04-01T23:15:57;22.20;54.60
75615;DHT22;64199;48.578;-4.520;2023-04-01T23:23:33;22.10;54.40
75615;DHT22;64199;48.578;-4.520;2023-04-01T23:33:30;22.10;54.20
75615;DHT22;64199;48.578;-4.520;2023-04-01T23:46:00;21.70;54.80
75615;DHT22;64199;48.578;-4.520;2023-04-01T23:48:41;22.20;55.30
75615;DHT22;64199;48.578;-4.520;2023-04-01T23:51:38;21.70;55.20
75615;DHT22;64199;48.578;-4.520;2023-04-01T23:54:17;21.60;55.30
75615;DHT22;64199;48.578;-4.520;2023-04-01T23:56:50;21.60;55.30
75615;DHT22;64199;48.578;-4.520;2023-04-01T23:59:22;21.60;55.30
